Time;durP1;ratioP1;P1;durP2;ratioP2;P2;SDS_P1;SDS_P2;PMS_P1;PMS_P2;Temp;Humidity;BMP_temperature;BMP_pressure;BME280_temperature;BME280_humidity;BME280_pressure;Samples;Min_cycle;Max_cycle;Signal;HPM_P1;HPM_P2
2022/01/08 00:01:40;;;;;;;;;;;;;;;12.24;50.85;100227.63;4938217;28;127740;-65
2022/01/08 00:04:06;;;;;;;;;;;;;;;12.24;51.01;100221.41;4929660;28;128037;-65
2022/01/08 00:06:32;;;;;;;;;;;;;;;12.24;50.82;100230.31;4921240;28;119693;-64
2022/01/08 00:08:58;;;;;;;;;;;;;;;12.24;50.68;100232.22;4934654;28;128956;-65
2022/01/08 00:11:26;;;;;;;;;;;;;;;12.23;50.86;100233.31;4934144;28;128259;-58
2022/01/08 00:13:52;;;;;;;;;;;;;;;12.22;50.92;100232.53;4921286;28;98461;-65
2022/01/08 00:16:18;;;;;;;;;;;;;;;12.23;50.70;100233.31;4920742;28;122775;-57
2022/01/08 00:18:44;;;;;;;;;;;;;;;12.23;50.87;100236.03;4920629;28;127713;-57
2022/01/08 00:21:10;;;;;;;;;;;;;;;12.24;50.97;100234.94;4919946;28;122260;-64
2022/01/08 00:23:36;;;;;;;;;;;;;;;12.23;50.93;100234.13;4920625;28;98338;-57
2022/01/08 00:26:04;;;;;;;;;;;;;;;12.23;50.88;100228.72;4921742;28;123406;-57
2022/01/08 00:28:30;;;;;;;;;;;;;;;12.24;50.61;100224.94;4921347;28;98579;-65
2022/01/08 00:30:56;;;;;;;;;;;;;;;12.26;50.87;100221.94;4930070;28;118577;-65
2022/01/08 00:33:22;;;;;;;;;;;;;;;12.25;50.78;100221.13;4938152;28;98271;-57
2022/01/08 00:35:48;;;;;;;;;;;;;;;12.25;50.62;100223.03;4937609;28;101534;-57
2022/01/08 00:38:13;;;;;;;;;;;;;;;12.26;50.77;100221.94;4924499;28;98443;-65
2022/01/08 00:40:40;;;;;;;;;;;;;;;12.27;50.85;100221.66;4920024;28;126657;-65
2022/01/08 00:43:06;;;;;;;;;;;;;;;12.25;50.70;100220.31;4919755;28;97903;-64
2022/01/08 00:45:32;;;;;;;;;;;;;;;12.27;50.78;100218.16;4919020;28;122519;-57
2022/01/08 00:47:57;;;;;;;;;;;;;;;12.27;50.62;100220.84;4918555;28;126091;-65
2022/01/08 00:50:23;;;;;;;;;;;;;;;12.27;50.81;100215.44;4919475;28;128488;-65
2022/01/08 00:52:49;;;;;;;;;;;;;;;12.27;50.82;100220.84;4918624;28;126877;-57
2022/01/08 00:55:15;;;;;;;;;;;;;;;12.26;50.70;100220.06;4917946;28;123121;-57
2022/01/08 00:57:41;;;;;;;;;;;;;;;12.26;50.86;100230.88;4918582;28;120777;-57
2022/01/08 01:00:10;;;;;;;;;;;;;;;12.27;50.75;100228.97;4920058;28;105275;-63
2022/01/08 01:02:36;;;;;;;;;;;;;;;12.27;50.76;100218.97;4938735;28;97777;-60
2022/01/08 01:05:03;;;;;;;;;;;;;;;12.28;50.68;100214.34;4937897;28;117008;-57
2022/01/08 01:07:29;;;;;;;;;;;;;;;12.26;50.57;100214.66;4935784;28;116755;-65
2022/01/08 01:09:55;;;;;;;;;;;;;;;12.26;50.60;100211.94;4921496;28;122526;-57
2022/01/08 01:12:21;;;;;;;;;;;;;;;12.26;50.85;100203.84;4918409;28;113566;-57
2022/01/08 01:14:47;;;;;;;;;;;;;;;12.26;50.63;100203.84;4922748;28;122811;-65
2022/01/08 01:17:13;;;;;;;;;;;;;;;12.27;50.65;100199.25;4937247;28;129027;-65
2022/01/08 01:19:39;;;;;;;;;;;;;;;12.27;50.53;100191.13;4920861;28;127117;-64
2022/01/08 01:22:05;;;;;;;;;;;;;;;12.27;50.78;100188.44;4918243;28;98108;-65
2022/01/08 01:24:33;;;;;;;;;;;;;;;12.27;50.63;100177.63;4919167;28;98059;-65
2022/01/08 01:29:45;;;;;;;;;;;;;;;12.26;50.85;100174.13;4917772;28;98394;-65
2022/01/08 01:48:23;;;;;;;;;;;;;;;12.26;50.59;100171.41;4937571;28;98257;-65
2022/01/08 01:50:49;;;;;;;;;;;;;;;12.25;50.55;100169.78;4938980;28;120725;-65
2022/01/08 01:53:15;;;;;;;;;;;;;;;12.26;50.64;100173.28;4937988;28;97918;-57
2022/01/08 01:55:41;;;;;;;;;;;;;;;12.26;50.59;100167.88;4938691;28;123459;-64
2022/01/08 01:58:08;;;;;;;;;;;;;;;12.25;50.44;100166.28;4924111;28;122787;-57
2022/01/08 02:00:34;;;;;;;;;;;;;;;12.25;50.68;100160.88;4918499;28;98402;-65
2022/01/08 02:03:00;;;;;;;;;;;;;;;12.25;50.48;100166.28;4919028;28;127097;-57
2022/01/08 02:05:27;;;;;;;;;;;;;;;12.25;50.60;100158.16;4926466;28;121556;-57
2022/01/08 02:07:56;;;;;;;;;;;;;;;12.24;50.54;100159.28;4938713;28;118934;-57
2022/01/08 02:10:24;;;;;;;;;;;;;;;12.22;50.45;100147.94;4939449;28;99100;-57
2022/01/08 02:12:50;;;;;;;;;;;;;;;12.22;50.63;100151.47;4939706;28;98113;-65
2022/01/08 02:15:16;;;;;;;;;;;;;;;12.22;50.56;100156.88;4926795;28;97972;-65
2022/01/08 02:17:42;;;;;;;;;;;;;;;12.22;50.75;100156.03;4920110;28;119791;-64
2022/01/08 02:20:09;;;;;;;;;;;;;;;12.21;50.52;100151.72;4920054;28;128160;-64
2022/01/08 02:22:35;;;;;;;;;;;;;;;12.20;50.52;100155.53;4919998;28;122319;-57
2022/01/08 02:25:01;;;;;;;;;;;;;;;12.19;50.52;100149.31;4934598;28;98399;-65
2022/01/08 02:27:27;;;;;;;;;;;;;;;12.19;50.61;100146.63;4919805;28;128673;-57
2022/01/08 02:29:53;;;;;;;;;;;;;;;12.18;50.58;100142.31;4919714;28;127560;-65
2022/01/08 02:32:23;;;;;;;;;;;;;;;12.17;50.51;100139.88;4919984;28;98093;-65
2022/01/08 02:34:49;;;;;;;;;;;;;;;12.14;50.55;100132.34;4921685;28;97870;-57
2022/01/08 02:37:16;;;;;;;;;;;;;;;12.13;50.38;100131.53;4935610;28;99042;-64
2022/01/08 02:39:43;;;;;;;;;;;;;;;12.11;50.50;100138.34;4942442;28;98950;-62
2022/01/08 02:42:12;;;;;;;;;;;;;;;12.08;50.51;100130.78;4938977;28;98215;-64
2022/01/08 02:44:38;;;;;;;;;;;;;;;12.07;50.59;100132.69;4943473;28;97867;-57
2022/01/08 02:47:04;;;;;;;;;;;;;;;12.05;50.63;100134.84;4942243;28;98445;-57
2022/01/08 02:49:33;;;;;;;;;;;;;;;12.04;50.57;100138.66;4940002;28;126435;-57
2022/01/08 02:51:59;;;;;;;;;;;;;;;12.01;50.65;100134.63;4940029;28;98157;-57
2022/01/08 02:54:25;;;;;;;;;;;;;;;12.01;50.71;100136.53;4941942;28;118127;-65
2022/01/08 02:56:51;;;;;;;;;;;;;;;11.98;50.64;100129.78;4941120;28;128125;-57
2022/01/08 02:59:17;;;;;;;;;;;;;;;11.97;50.41;100130.06;4940081;28;114865;-57
2022/01/08 03:01:43;;;;;;;;;;;;;;;11.96;50.40;100131.97;4938221;28;108051;-57
2022/01/08 03:04:09;;;;;;;;;;;;;;;11.95;50.62;100135.78;4940175;28;124101;-57
2022/01/08 03:06:35;;;;;;;;;;;;;;;11.94;50.53;100120.63;4940409;28;115142;-64
2022/01/08 03:09:01;;;;;;;;;;;;;;;11.92;50.58;100117.44;4940999;28;113346;-57
2022/01/08 03:11:27;;;;;;;;;;;;;;;11.91;50.19;100109.63;4937026;28;98016;-64
2022/01/08 03:13:53;;;;;;;;;;;;;;;11.89;50.58;100115.28;4938850;28;123225;-65
2022/01/08 03:16:19;;;;;;;;;;;;;;;11.88;50.84;100116.38;4920186;28;128318;-57
2022/01/08 03:18:47;;;;;;;;;;;;;;;11.86;50.45;100121.25;4933597;28;127976;-57
2022/01/08 03:21:16;;;;;;;;;;;;;;;11.86;50.45;100123.16;4941557;28;98567;-65
2022/01/08 03:23:49;;;;;;;;;;;;;;;11.84;50.22;100120.75;4923188;28;98084;-65
2022/01/08 03:26:16;;;;;;;;;;;;;;;11.83;50.31;100116.44;4923034;28;98055;-57
2022/01/08 03:28:42;;;;;;;;;;;;;;;11.82;50.54;100116.66;4941762;28;98343;-57
2022/01/08 03:31:08;;;;;;;;;;;;;;;11.80;50.65;100119.66;4941112;28;98770;-65
2022/01/08 03:33:34;;;;;;;;;;;;;;;11.79;50.56;100108.06;4941583;28;97939;-65
2022/01/08 03:36:00;;;;;;;;;;;;;;;11.78;50.74;100111.03;4939289;28;128210;-64
2022/01/08 03:38:26;;;;;;;;;;;;;;;11.77;50.63;100110.22;4933457;28;126986;-57
2022/01/08 03:40:52;;;;;;;;;;;;;;;11.77;50.66;100109.44;4921132;28;98316;-57
2022/01/08 03:43:18;;;;;;;;;;;;;;;11.76;50.70;100113.22;4935786;28;97979;-57
2022/01/08 03:45:44;;;;;;;;;;;;;;;11.74;50.45;100113.50;4938825;28;127211;-64
2022/01/08 03:50:35;;;;;;;;;;;;;;;11.72;50.26;100110.28;4919161;28;113380;-57
2022/01/08 03:53:01;;;;;;;;;;;;;;;11.71;50.66;100111.38;4920117;28;122364;-64
2022/01/08 03:55:27;;;;;;;;;;;;;;;11.70;50.49;100117.03;4920944;28;98879;-57
2022/01/08 03:57:53;;;;;;;;;;;;;;;11.69;50.38;100110.03;4921586;28;99093;-57
2022/01/08 04:00:19;;;;;;;;;;;;;;;11.69;50.61;100120.84;4919993;28;128549;-57
2022/01/08 04:02:45;;;;;;;;;;;;;;;11.68;50.61;100117.34;4919809;28;122478;-57
2022/01/08 04:05:11;;;;;;;;;;;;;;;11.69;50.22;100118.13;4920654;28;98721;-57
2022/01/08 04:07:37;;;;;;;;;;;;;;;11.68;50.66;100116.53;4922097;28;128086;-65
2022/01/08 04:10:03;;;;;;;;;;;;;;;11.69;50.27;100120.84;4921554;28;128298;-65
2022/01/08 04:12:39;;;;;;;;;;;;;;;11.68;50.15;100117.34;4940514;28;102299;-57
2022/01/08 04:15:19;;;;;;;;;;;;;;;11.68;50.31;100116.53;4940906;28;98560;-57
2022/01/08 04:17:45;;;;;;;;;;;;;;;11.68;50.43;100122.75;4930522;28;98851;-57
2022/01/08 04:20:11;;;;;;;;;;;;;;;11.68;50.53;100125.44;4933091;28;127765;-65
2022/01/08 04:22:37;;;;;;;;;;;;;;;11.67;50.20;100115.75;4923136;28;110224;-56
2022/01/08 04:25:03;;;;;;;;;;;;;;;11.68;50.49;100120.03;4919680;28;129028;-57
2022/01/08 04:27:29;;;;;;;;;;;;;;;11.70;50.52;100127.84;4919983;28;113427;-57
2022/01/08 04:29:55;;;;;;;;;;;;;;;11.71;50.38;100126.75;4919535;28;126475;-56
2022/01/08 04:32:21;;;;;;;;;;;;;;;11.71;50.09;100126.75;4918746;28;123204;-65
2022/01/08 04:34:47;;;;;;;;;;;;;;;11.74;50.15;100134.28;4920736;28;128209;-65
2022/01/08 04:37:13;;;;;;;;;;;;;;;11.73;50.26;100124.59;4920525;28;98730;-57
2022/01/08 04:39:38;;;;;;;;;;;;;;;11.73;50.39;100125.38;4920929;28;98586;-57
2022/01/08 04:42:04;;;;;;;;;;;;;;;11.75;50.13;100130.50;4919196;28;122540;-57
2022/01/08 04:44:30;;;;;;;;;;;;;;;11.76;50.00;100130.22;4933721;28;129325;-65
2022/01/08 04:46:56;;;;;;;;;;;;;;;11.78;50.28;100133.44;4935026;28;98541;-57
2022/01/08 04:49:22;;;;;;;;;;;;;;;11.78;50.06;100128.03;4921206;28;98368;-65
2022/01/08 04:51:48;;;;;;;;;;;;;;;11.80;50.14;100122.38;4920403;28;121633;-64
2022/01/08 04:54:14;;;;;;;;;;;;;;;11.82;50.01;100122.06;4920498;28;98722;-64
2022/01/08 04:56:40;;;;;;;;;;;;;;;11.82;50.48;100122.06;4920033;28;98494;-62
2022/01/08 04:59:06;;;;;;;;;;;;;;;11.83;50.28;100123.69;4919932;28;98935;-65
2022/01/08 05:01:32;;;;;;;;;;;;;;;11.85;50.06;100116.16;4919735;28;120644;-57
2022/01/08 05:03:58;;;;;;;;;;;;;;;11.84;50.30;100120.75;4919659;28;128655;-64
2022/01/08 05:06:24;;;;;;;;;;;;;;;11.85;50.30;100110.75;4920919;28;127740;-64
2022/01/08 05:08:50;;;;;;;;;;;;;;;11.86;50.04;100113.16;4922361;28;98805;-56
2022/01/08 05:11:15;;;;;;;;;;;;;;;11.87;50.19;100114.78;4921113;28;123376;-57
2022/01/08 05:13:44;;;;;;;;;;;;;;;11.87;50.32;100111.25;4919746;28;123931;-57
2022/01/08 05:16:10;;;;;;;;;;;;;;;11.88;49.98;100110.19;4927450;28;98583;-64
2022/01/08 05:18:36;;;;;;;;;;;;;;;11.88;49.88;100110.97;4936468;28;98057;-57
2022/01/08 05:21:12;;;;;;;;;;;;;;;11.90;49.89;100108.00;4938135;28;98066;-56
2022/01/08 05:23:38;;;;;;;;;;;;;;;11.90;49.85;100113.38;4921691;28;98603;-64
2022/01/08 05:26:04;;;;;;;;;;;;;;;11.91;49.90;100115.03;4933728;28;127210;-63
2022/01/08 05:28:30;;;;;;;;;;;;;;;11.93;49.95;100110.13;4921826;28;97803;-56
2022/01/08 05:30:56;;;;;;;;;;;;;;;11.94;49.99;100119.84;4920619;28;122651;-65
2022/01/08 05:33:22;;;;;;;;;;;;;;;11.93;50.23;100112.81;4919340;28;125804;-56
2022/01/08 05:35:48;;;;;;;;;;;;;;;11.95;50.00;100111.47;4918804;28;128629;-57
2022/01/08 05:38:14;;;;;;;;;;;;;;;11.96;49.93;100114.97;4918989;28;127753;-64
2022/01/08 05:40:40;;;;;;;;;;;;;;;11.96;50.16;100117.66;4920796;28;114009;-64
2022/01/08 05:43:06;;;;;;;;;;;;;;;11.97;50.13;100122.78;4920393;28;99265;-56
2022/01/08 05:45:32;;;;;;;;;;;;;;;11.97;50.13;100116.56;4919181;28;123715;-64
2022/01/08 05:47:57;;;;;;;;;;;;;;;11.98;49.96;100123.56;4919055;28;121594;-64
2022/01/08 05:50:23;;;;;;;;;;;;;;;11.99;50.08;100123.31;4921025;28;109342;-56
2022/01/08 05:52:49;;;;;;;;;;;;;;;11.99;50.10;100115.22;4920287;28;98632;-56
2022/01/08 05:55:16;;;;;;;;;;;;;;;12.00;49.94;100116.00;4919946;28;98417;-56
2022/01/08 05:57:42;;;;;;;;;;;;;;;12.00;50.09;100116.81;4921479;28;98310;-64
2022/01/08 06:00:08;;;;;;;;;;;;;;;12.00;50.02;100124.09;4917455;28;122953;-64
2022/01/08 06:02:37;;;;;;;;;;;;;;;12.02;49.95;100130.00;4921412;28;110788;-56
2022/01/08 06:05:06;;;;;;;;;;;;;;;12.02;49.98;100122.75;4921198;28;98563;-57
2022/01/08 06:07:33;;;;;;;;;;;;;;;12.03;50.10;100121.66;4910234;28;98686;-56
2022/01/08 06:09:59;;;;;;;;;;;;;;;12.03;50.22;100115.44;4923357;28;111781;-60
2022/01/08 06:12:24;;;;;;;;;;;;;;;12.04;49.87;100117.84;4930215;28;128228;-64
2022/01/08 06:14:50;;;;;;;;;;;;;;;12.05;50.20;100115.94;4941564;28;126857;-64
2022/01/08 06:17:16;;;;;;;;;;;;;;;12.06;49.80;100124.84;4940448;28;127760;-56
2022/01/08 06:19:42;;;;;;;;;;;;;;;12.06;49.81;100122.94;4941227;28;98203;-56
2022/01/08 06:22:08;;;;;;;;;;;;;;;12.04;49.85;100115.16;4938080;28;128067;-56
2022/01/08 06:24:34;;;;;;;;;;;;;;;12.07;49.97;100121.09;4940042;28;128415;-56
2022/01/08 06:27:00;;;;;;;;;;;;;;;12.07;49.80;100121.88;4933576;28;128389;-56
2022/01/08 06:29:26;;;;;;;;;;;;;;;12.08;50.30;100117.28;4921037;28;97852;-56
2022/01/08 06:31:53;;;;;;;;;;;;;;;12.08;49.89;100120.78;4921268;28;119640;-56
2022/01/08 06:34:19;;;;;;;;;;;;;;;12.09;50.20;100124.28;4921349;28;98273;-56
2022/01/08 06:36:47;;;;;;;;;;;;;;;12.09;50.15;100121.59;4935052;28;98443;-56
2022/01/08 06:39:14;;;;;;;;;;;;;;;12.07;49.79;100113.78;4940419;28;97834;-57
2022/01/08 06:41:40;;;;;;;;;;;;;;;12.09;49.82;100127.00;4938439;28;120445;-56
2022/01/08 06:44:06;;;;;;;;;;;;;;;12.09;50.03;100127.00;4920585;28;128853;-56
2022/01/08 06:46:32;;;;;;;;;;;;;;;12.09;50.20;100125.09;4920833;28;98110;-56
2022/01/08 06:48:57;;;;;;;;;;;;;;;12.09;49.83;100124.28;4920331;28;120315;-56
2022/01/08 06:51:24;;;;;;;;;;;;;;;12.08;49.80;100122.69;4920132;28;127055;-56
2022/01/08 06:53:50;;;;;;;;;;;;;;;12.08;49.89;100123.50;4918186;28;98327;-56
2022/01/08 06:56:17;;;;;;;;;;;;;;;12.09;50.07;100127.78;4937293;28;126226;-56
2022/01/08 06:58:44;;;;;;;;;;;;;;;12.08;50.15;100126.19;4939748;28;97910;-56
2022/01/08 07:01:10;;;;;;;;;;;;;;;12.09;50.00;100127.78;4937457;28;98976;-57
2022/01/08 07:03:35;;;;;;;;;;;;;;;12.10;49.77;100128.59;4921625;28;128565;-56
2022/01/08 07:06:02;;;;;;;;;;;;;;;12.10;49.75;100115.09;4919226;28;115038;-55
2022/01/08 07:08:27;;;;;;;;;;;;;;;12.09;50.15;100122.38;4917341;28;98057;-56
2022/01/08 07:10:53;;;;;;;;;;;;;;;12.10;49.91;100117.78;4916783;28;128868;-56
2022/01/08 07:13:19;;;;;;;;;;;;;;;12.10;49.96;100115.88;4918759;28;101073;-64
2022/01/08 07:15:45;;;;;;;;;;;;;;;12.10;49.87;100112.38;4918470;28;97985;-64
2022/01/08 07:18:11;;;;;;;;;;;;;;;12.10;49.90;100121.28;4919169;28;97881;-65
2022/01/08 07:20:37;;;;;;;;;;;;;;;12.11;49.81;100132.94;4917623;28;127997;-65
2022/01/08 07:23:03;;;;;;;;;;;;;;;12.10;49.69;100128.59;4924300;28;107935;-56
2022/01/08 07:25:29;;;;;;;;;;;;;;;12.12;49.81;100134.53;4917030;28;126841;-56
2022/01/08 07:27:55;;;;;;;;;;;;;;;12.12;49.96;100137.22;4921391;28;116831;-64
2022/01/08 07:30:21;;;;;;;;;;;;;;;12.11;49.70;100141.03;4917238;28;127470;-56
2022/01/08 07:32:48;;;;;;;;;;;;;;;12.11;49.72;100141.84;4920714;28;98738;-56
2022/01/08 07:35:15;;;;;;;;;;;;;;;12.11;49.56;100143.75;4916550;28;97999;-56
2022/01/08 07:37:41;;;;;;;;;;;;;;;12.11;49.83;100149.94;4917070;28;97995;-56
2022/01/08 07:40:08;;;;;;;;;;;;;;;12.13;49.86;100163.16;4916417;28;99003;-56
2022/01/08 07:42:34;;;;;;;;;;;;;;;12.11;49.81;100165.34;4924619;28;106880;-56
2022/01/08 07:45:00;;;;;;;;;;;;;;;12.11;50.09;100165.34;4912807;28;127331;-56
2022/01/08 07:47:25;;;;;;;;;;;;;;;12.10;49.86;100161.81;4916180;28;124433;-56
2022/01/08 07:49:51;;;;;;;;;;;;;;;12.11;49.77;100166.16;4916080;28;127456;-56
2022/01/08 07:52:17;;;;;;;;;;;;;;;12.09;49.71;100173.72;4917310;28;128340;-57
2022/01/08 07:54:43;;;;;;;;;;;;;;;12.08;49.74;100174.81;4918996;28;99223;-56
2022/01/08 07:57:09;;;;;;;;;;;;;;;12.08;49.84;100172.13;4916759;28;121951;-56
2022/01/08 07:59:35;;;;;;;;;;;;;;;12.08;49.92;100164.00;4914271;28;129138;-57
2022/01/08 08:02:01;;;;;;;;;;;;;;;12.11;49.88;100166.16;4917231;28;98429;-56
2022/01/08 08:04:27;;;;;;;;;;;;;;;12.15;49.63;100163.69;4917087;28;117902;-56
2022/01/08 08:06:53;;;;;;;;;;;;;;;12.18;49.56;100169.34;4915195;28;122691;-56
2022/01/08 08:09:19;;;;;;;;;;;;;;;12.21;49.49;100173.34;4913309;28;127740;-56
2022/01/08 08:11:45;;;;;;;;;;;;;;;12.23;49.68;100168.47;4916588;28;128305;-56
2022/01/08 08:14:10;;;;;;;;;;;;;;;12.26;49.62;100171.41;4916766;28;126445;-56
2022/01/08 08:16:36;;;;;;;;;;;;;;;12.29;49.42;100167.31;4916413;28;119753;-56
2022/01/08 08:19:02;;;;;;;;;;;;;;;12.34;49.48;100161.88;4914859;28;98840;-56
2022/01/08 08:21:28;;;;;;;;;;;;;;;12.42;49.34;100171.25;4912927;28;127927;-56
2022/01/08 08:23:54;;;;;;;;;;;;;;;12.50;49.31;100176.03;4915487;28;121326;-56
2022/01/08 08:26:20;;;;;;;;;;;;;;;12.55;49.44;100162.47;4921901;28;122672;-56
2022/01/08 08:28:46;;;;;;;;;;;;;;;12.62;49.35;100167.53;4916968;28;98500;-56
2022/01/08 08:31:12;;;;;;;;;;;;;;;12.72;49.16;100172.81;4914106;28;128791;-56
2022/01/08 08:33:38;;;;;;;;;;;;;;;12.75;49.14;100167.63;4916139;28;116903;-56
2022/01/08 08:36:04;;;;;;;;;;;;;;;12.77;49.23;100170.84;4916354;28;115461;-56
2022/01/08 08:38:30;;;;;;;;;;;;;;;12.79;49.15;100170.56;4919871;28;116906;-65
2022/01/08 08:40:56;;;;;;;;;;;;;;;12.80;49.36;100171.34;4915756;28;127940;-64
2022/01/08 08:43:23;;;;;;;;;;;;;;;12.81;49.21;100176.50;4917767;28;99217;-56
2022/01/08 08:45:48;;;;;;;;;;;;;;;12.82;49.45;100183.50;4922610;28;97991;-56
2022/01/08 08:48:15;;;;;;;;;;;;;;;12.84;49.44;100180.50;4916374;28;126464;-64
2022/01/08 08:50:42;;;;;;;;;;;;;;;12.84;49.55;100178.59;4917018;28;97720;-64
2022/01/08 08:53:08;;;;;;;;;;;;;;;12.84;49.47;100173.19;4917742;28;98775;-64
2022/01/08 08:55:34;;;;;;;;;;;;;;;12.87;49.25;100182.63;4923341;28;106292;-56
2022/01/08 08:58:00;;;;;;;;;;;;;;;12.83;49.57;100177.00;4915946;28;128404;-65
2022/01/08 09:00:26;;;;;;;;;;;;;;;12.81;49.82;100171.09;4917204;28;98608;-56
2022/01/08 09:02:52;;;;;;;;;;;;;;;12.80;49.64;100174.06;4917057;28;98041;-56
2022/01/08 09:05:18;;;;;;;;;;;;;;;12.76;49.98;100179.25;4919153;28;97983;-56
2022/01/08 09:07:44;;;;;;;;;;;;;;;12.75;49.78;100181.16;4916966;28;128014;-57
2022/01/08 09:10:10;;;;;;;;;;;;;;;12.75;49.96;100180.34;4916251;28;114666;-56
2022/01/08 09:12:37;;;;;;;;;;;;;;;12.74;49.85;100182.25;4916727;28;98480;-56
2022/01/08 09:15:04;;;;;;;;;;;;;;;12.75;50.02;100173.03;4917837;28;97711;-64
2022/01/08 09:17:30;;;;;;;;;;;;;;;12.76;49.93;100182.75;4921664;28;116501;-64
2022/01/08 09:19:56;;;;;;;;;;;;;;;12.77;49.98;100181.69;4920045;28;98523;-56
2022/01/08 09:22:22;;;;;;;;;;;;;;;12.80;50.05;100184.88;4916742;28;97919;-56
2022/01/08 09:24:49;;;;;;;;;;;;;;;12.81;50.10;100181.09;4916627;28;98132;-64
2022/01/08 09:27:15;;;;;;;;;;;;;;;12.80;50.05;100176.78;4915475;28;128107;-64
2022/01/08 09:29:41;;;;;;;;;;;;;;;12.80;50.20;100171.34;4916247;28;128098;-56
2022/01/08 09:32:08;;;;;;;;;;;;;;;12.79;49.87;100178.66;4916347;28;105057;-56
2022/01/08 09:34:34;;;;;;;;;;;;;;;12.79;50.21;100175.97;4919303;28;98145;-64
2022/01/08 09:37:00;;;;;;;;;;;;;;;12.80;50.30;100182.19;4920299;28;98820;-64
2022/01/08 09:39:26;;;;;;;;;;;;;;;12.78;50.36;100183.28;4924441;28;106192;-56
2022/01/08 09:41:53;;;;;;;;;;;;;;;12.78;50.33;100179.78;4916522;28;126887;-64
2022/01/08 09:44:19;;;;;;;;;;;;;;;12.79;50.28;100178.66;4918719;28;97794;-64
2022/01/08 09:46:45;;;;;;;;;;;;;;;12.80;50.22;100174.06;4917436;28;129006;-65
2022/01/08 09:49:11;;;;;;;;;;;;;;;12.79;50.28;100175.97;4924428;28;128749;-56
2022/01/08 09:51:37;;;;;;;;;;;;;;;12.81;50.39;100168.38;4920223;28;119452;-56
2022/01/08 09:54:03;;;;;;;;;;;;;;;12.82;50.38;100170.00;4920969;28;100782;-56
2022/01/08 09:56:31;;;;;;;;;;;;;;;12.83;50.31;100165.38;4920127;28;98992;-56
2022/01/08 09:58:57;;;;;;;;;;;;;;;12.84;50.39;100162.38;4913014;28;98596;-56
2022/01/08 10:01:28;;;;;;;;;;;;;;;12.83;50.42;100168.09;4920555;28;122598;-56
2022/01/08 10:03:54;;;;;;;;;;;;;;;12.84;50.38;100162.38;4922186;28;97986;-65
2022/01/08 10:06:25;;;;;;;;;;;;;;;12.82;50.58;100153.75;4919458;28;100696;-56
2022/01/08 10:08:51;;;;;;;;;;;;;;;12.83;50.39;100159.97;4933150;28;98038;-64
2022/01/08 10:11:17;;;;;;;;;;;;;;;12.82;50.46;100161.88;4930643;28;98087;-64
2022/01/08 10:13:45;;;;;;;;;;;;;;;12.81;50.64;100157.56;4919897;28;98078;-56
2022/01/08 10:18:57;;;;;;;;;;;;;;;12.79;50.58;100148.94;4919604;28;98093;-65
2022/01/08 10:21:28;;;;;;;;;;;;;;;12.78;50.73;100152.72;4921092;28;98733;-57
2022/01/08 10:23:59;;;;;;;;;;;;;;;12.79;50.53;100154.34;4913550;28;98207;-64
2022/01/08 10:26:33;;;;;;;;;;;;;;;12.80;50.59;100147.81;4920115;28;97979;-56
2022/01/08 10:29:03;;;;;;;;;;;;;;;12.82;50.63;100144.84;4921974;28;98612;-56
2022/01/08 10:31:34;;;;;;;;;;;;;;;12.84;50.65;100145.34;4924116;28;98071;-65
2022/01/08 10:34:00;;;;;;;;;;;;;;;12.85;50.60;100133.41;4917405;28;98117;-64
2022/01/08 10:36:31;;;;;;;;;;;;;;;12.85;50.76;100139.66;4918672;28;98743;-56
2022/01/08 10:38:58;;;;;;;;;;;;;;;12.87;50.70;100136.66;4918512;28;102097;-56
2022/01/08 10:41:25;;;;;;;;;;;;;;;12.90;50.57;100131.47;4918735;28;98210;-56
2022/01/08 10:44:14;;;;;;;;;;;;;;;12.95;50.72;100127.88;4923875;28;97774;-57
2022/01/08 10:46:55;;;;;;;;;;;;;;;13.02;50.59;100129.16;4918712;28;98403;-57
2022/01/08 10:49:48;;;;;;;;;;;;;;;13.07;50.50;100132.88;4917361;28;99232;-56
2022/01/08 10:52:14;;;;;;;;;;;;;;;13.08;50.60;100118.25;4919619;28;98790;-64
2022/01/08 10:54:44;;;;;;;;;;;;;;;13.08;50.49;100123.66;4919997;28;116863;-65
2022/01/08 10:57:12;;;;;;;;;;;;;;;13.08;50.63;100121.75;4919241;28;98451;-64
2022/01/08 10:59:38;;;;;;;;;;;;;;;13.11;50.59;100118.47;4919656;28;98050;-64
2022/01/08 11:02:11;;;;;;;;;;;;;;;13.15;50.43;100115.97;4920667;28;120089;-64
2022/01/08 11:04:46;;;;;;;;;;;;;;;13.20;50.54;100118.59;4919598;28;102758;-64
2022/01/08 11:07:17;;;;;;;;;;;;;;;13.22;50.59;100116.44;4925507;28;98444;-65
2022/01/08 11:09:45;;;;;;;;;;;;;;;13.25;50.55;100124.78;4919325;28;98682;-64
2022/01/08 11:12:14;;;;;;;;;;;;;;;13.26;50.61;100114.78;4918370;28;98358;-64
2022/01/08 11:17:24;;;;;;;;;;;;;;;13.31;50.64;100116.59;4918654;28;97997;-64
2022/01/08 11:19:51;;;;;;;;;;;;;;;13.36;50.73;100114.63;4919679;28;99280;-63
2022/01/08 11:22:20;;;;;;;;;;;;;;;13.41;50.43;100111.03;4925761;28;109354;-64
2022/01/08 11:25:02;;;;;;;;;;;;;;;13.44;50.77;100113.97;4923042;28;97926;-64
2022/01/08 11:27:40;;;;;;;;;;;;;;;13.49;50.70;100124.69;4923330;28;99361;-64
2022/01/08 11:30:09;;;;;;;;;;;;;;;13.53;50.58;100121.41;4919503;28;98106;-64
2022/01/08 11:32:35;;;;;;;;;;;;;;;13.57;50.57;100109.69;4920492;28;102002;-63
2022/01/08 11:35:03;;;;;;;;;;;;;;;13.60;50.73;100121.84;4918965;28;97913;-64
2022/01/08 11:37:29;;;;;;;;;;;;;;;13.63;50.98;100123.94;4918683;28;99387;-64
2022/01/08 11:39:55;;;;;;;;;;;;;;;13.65;50.71;100124.47;4917254;28;115233;-64
2022/01/08 11:42:22;;;;;;;;;;;;;;;13.72;50.70;100116.78;4917612;28;125614;-64
2022/01/08 11:44:49;;;;;;;;;;;;;;;13.78;50.59;100122.91;4918742;28;99805;-65
2022/01/08 11:47:16;;;;;;;;;;;;;;;13.82;50.58;100124.72;4917002;28;116777;-65
2022/01/08 11:49:42;;;;;;;;;;;;;;;13.83;50.49;100115.47;4915496;28;123900;-64
2022/01/08 11:52:19;;;;;;;;;;;;;;;13.85;50.99;100123.31;4917375;28;103396;-65
2022/01/08 11:54:46;;;;;;;;;;;;;;;13.86;50.71;100119.50;4919501;28;97911;-63
2022/01/08 11:57:31;;;;;;;;;;;;;;;13.83;50.84;100120.88;4918514;28;99206;-64
2022/01/08 11:59:58;;;;;;;;;;;;;;;13.80;51.31;100116.09;4917521;28;99031;-64
2022/01/08 12:02:34;;;;;;;;;;;;;;;13.80;51.35;100112.59;4918867;28;98213;-64
2022/01/08 12:05:00;;;;;;;;;;;;;;;13.81;51.30;100112.28;4918737;28;97759;-64
2022/01/08 12:07:35;;;;;;;;;;;;;;;13.85;51.29;100107.06;4925302;28;99951;-64
2022/01/08 12:10:10;;;;;;;;;;;;;;;13.87;51.28;100105.69;4918166;28;99010;-56
2022/01/08 12:12:57;;;;;;;;;;;;;;;13.89;50.95;100110.78;4917609;28;98982;-57
2022/01/08 12:15:52;;;;;;;;;;;;;;;13.92;50.85;100108.28;4920482;28;98043;-65
2022/01/08 12:18:20;;;;;;;;;;;;;;;13.99;51.20;100116.03;4910845;28;128444;-56
2022/01/08 12:20:51;;;;;;;;;;;;;;;14.03;50.91;100106.22;4917768;28;97809;-65
2022/01/08 12:23:33;;;;;;;;;;;;;;;14.09;51.02;100113.13;4917606;28;98135;-65
2022/01/08 12:26:23;;;;;;;;;;;;;;;14.11;51.06;100108.22;4917695;28;98222;-64
2022/01/08 12:28:59;;;;;;;;;;;;;;;14.10;50.96;100103.09;4911794;28;98460;-57
2022/01/08 12:31:38;;;;;;;;;;;;;;;14.09;51.12;100104.19;4918256;28;98558;-57
2022/01/08 12:34:25;;;;;;;;;;;;;;;14.06;51.10;100105.59;4918006;28;98352;-56
2022/01/08 12:36:55;;;;;;;;;;;;;;;13.97;51.57;100108.19;4917281;28;98076;-64
2022/01/08 12:39:25;;;;;;;;;;;;;;;13.92;51.82;100107.50;4917703;28;99145;-64
2022/01/08 12:42:20;;;;;;;;;;;;;;;13.87;51.73;100102.97;4912061;28;98431;-65
2022/01/08 12:45:09;;;;;;;;;;;;;;;13.84;51.59;100100.84;4915750;28;98358;-56
2022/01/08 12:47:47;;;;;;;;;;;;;;;13.83;51.63;100103.84;4916399;28;98359;-57
2022/01/08 12:50:17;;;;;;;;;;;;;;;13.83;51.60;100098.41;4917623;28;98504;-56
2022/01/08 12:53:09;;;;;;;;;;;;;;;13.85;51.65;100096.22;4917477;28;99046;-65
2022/01/08 12:55:41;;;;;;;;;;;;;;;13.84;51.75;100091.91;4917266;28;98548;-64
2022/01/08 12:58:29;;;;;;;;;;;;;;;13.85;51.80;100088.91;4917943;28;97862;-56
2022/01/08 13:01:15;;;;;;;;;;;;;;;13.85;51.82;100088.91;4915028;28;99396;-56